Time;durP1;ratioP1;P1;durP2;ratioP2;P2;SDS_P1;SDS_P2;PMS_P1;PMS_P2;Temp;Humidity;BMP_temperature;BMP_pressure;BME280_temperature;BME280_humidity;BME280_pressure;Samples;Min_cycle;Max_cycle;Signal;HPM_P1;HPM_P2
2023/07/30 00:01:57;;;;;;;11.95;8.50;;;16.90;99.90;;;;;;5016091;28;20225;-77
2023/07/30 00:04:23;;;;;;;11.75;9.15;;;16.90;99.90;;;;;;5016154;28;20199;-77
2023/07/30 00:06:49;;;;;;;13.02;9.55;;;16.80;99.90;;;;;;5033586;28;20202;-77
2023/07/30 00:09:14;;;;;;;15.93;9.73;;;16.70;99.90;;;;;;5015792;28;20635;-77
2023/07/30 00:11:40;;;;;;;13.45;9.20;;;16.70;99.90;;;;;;5033504;28;20245;-77
2023/07/30 00:14:06;;;;;;;15.30;8.77;;;16.70;99.90;;;;;;5033580;28;20278;-77
2023/07/30 00:16:32;;;;;;;12.35;9.27;;;16.60;99.90;;;;;;5015953;28;20182;-77
2023/07/30 00:18:57;;;;;;;13.02;8.90;;;16.70;99.90;;;;;;5033472;28;20190;-77
2023/07/30 00:21:23;;;;;;;12.20;9.10;;;16.60;99.90;;;;;;5015756;28;20172;-77
2023/07/30 00:23:49;;;;;;;14.60;9.07;;;16.60;99.90;;;;;;5015634;28;20202;-77
2023/07/30 00:26:15;;;;;;;11.77;9.00;;;16.60;99.90;;;;;;5033625;28;20594;-77
2023/07/30 00:28:40;;;;;;;12.57;8.27;;;16.60;99.90;;;;;;5015859;28;20680;-77
2023/07/30 00:31:06;;;;;;;11.82;8.05;;;16.60;99.90;;;;;;5015886;28;20592;-77
2023/07/30 00:33:32;;;;;;;14.30;8.88;;;16.50;99.90;;;;;;5015550;28;20227;-77
2023/07/30 00:35:58;;;;;;;12.32;8.07;;;16.40;99.90;;;;;;5033410;28;20643;-77
2023/07/30 00:38:24;;;;;;;16.60;8.65;;;16.40;99.90;;;;;;5033346;28;20297;-77
2023/07/30 00:40:49;;;;;;;14.27;9.45;;;16.40;99.90;;;;;;5033284;28;20206;-77
2023/07/30 00:43:15;;;;;;;15.50;9.00;;;16.30;99.90;;;;;;5015711;28;20191;-77
2023/07/30 00:45:43;;;;;;;15.95;8.73;;;16.30;99.90;;;;;;5022327;28;20189;-76
2023/07/30 00:48:13;;;;;;;12.75;8.80;;;16.20;99.90;;;;;;5017033;28;20193;-77
2023/07/30 00:50:40;;;;;;;14.38;8.35;;;16.10;99.90;;;;;;5012555;28;20299;-77
2023/07/30 00:53:08;;;;;;;13.15;7.93;;;16.10;99.90;;;;;;5019017;28;20214;-76
2023/07/30 00:55:35;;;;;;;15.98;7.53;;;16.00;99.90;;;;;;5015966;28;20664;-77
2023/07/30 00:58:01;;;;;;;10.05;7.28;;;15.90;99.90;;;;;;5015437;28;20274;-77
2023/07/30 01:00:28;;;;;;;10.02;7.15;;;15.80;99.90;;;;;;5015614;28;20203;-77
2023/07/30 01:02:54;;;;;;;11.73;6.35;;;15.70;99.90;;;;;;5015405;28;20199;-78
2023/07/30 01:05:20;;;;;;;9.70;6.25;;;15.70;99.90;;;;;;5015466;28;20663;-77
2023/07/30 01:07:46;;;;;;;8.88;6.22;;;15.60;99.90;;;;;;5015223;28;20644;-76
2023/07/30 01:10:12;;;;;;;11.60;5.60;;;15.60;99.90;;;;;;5028680;28;20249;-77
2023/07/30 01:12:38;;;;;;;11.13;5.90;;;15.60;99.90;;;;;;5036664;28;20195;-77
2023/07/30 01:15:05;;;;;;;15.07;6.60;;;15.50;99.90;;;;;;5036636;28;20176;-77
2023/07/30 01:17:31;;;;;;;12.13;5.80;;;15.50;99.90;;;;;;5018823;28;20175;-76
2023/07/30 01:19:57;;;;;;;15.63;6.00;;;15.50;99.90;;;;;;5036463;28;20210;-76
2023/07/30 01:22:23;;;;;;;11.50;5.88;;;15.50;99.90;;;;;;5018817;28;20187;-76
2023/07/30 01:24:49;;;;;;;9.77;5.13;;;15.50;99.90;;;;;;5017761;28;20211;-76
2023/07/30 01:27:27;;;;;;;7.38;5.38;;;15.50;99.90;;;;;;5036570;28;20225;-77
2023/07/30 01:30:08;;;;;;;11.27;5.43;;;15.40;99.90;;;;;;5018627;28;20533;-78
2023/07/30 01:32:34;;;;;;;10.48;5.15;;;15.40;99.90;;;;;;5018521;28;20179;-77
2023/07/30 01:35:01;;;;;;;7.63;5.00;;;15.30;99.90;;;;;;5018428;28;20184;-76
2023/07/30 01:37:29;;;;;;;12.27;5.28;;;15.30;99.90;;;;;;5018480;28;20713;-77
2023/07/30 01:39:56;;;;;;;12.05;5.05;;;15.30;99.90;;;;;;5018458;28;20213;-77
2023/07/30 01:42:21;;;;;;;11.27;5.10;;;15.30;99.90;;;;;;5017011;28;20179;-77
2023/07/30 01:44:47;;;;;;;8.55;4.85;;;15.30;99.90;;;;;;5018044;28;20201;-77
2023/07/30 01:47:13;;;;;;;11.35;5.75;;;15.30;99.90;;;;;;5036113;28;20167;-77
2023/07/30 01:49:39;;;;;;;11.02;4.75;;;15.30;99.90;;;;;;5017926;28;20701;-77
2023/07/30 01:52:04;;;;;;;6.93;4.35;;;15.10;99.90;;;;;;5018151;28;20175;-77
2023/07/30 01:54:30;;;;;;;9.75;5.40;;;15.10;99.90;;;;;;5035273;28;20195;-77
2023/07/30 01:56:56;;;;;;;8.88;5.20;;;15.00;99.90;;;;;;5034435;28;20206;-77
2023/07/30 01:59:22;;;;;;;6.20;4.55;;;15.00;99.90;;;;;;5015654;28;20295;-77
2023/07/30 02:01:47;;;;;;;7.57;5.40;;;15.00;99.90;;;;;;5016573;28;20231;-77
2023/07/30 02:04:13;;;;;;;12.45;5.18;;;14.90;99.90;;;;;;5035500;28;20679;-77
2023/07/30 02:06:39;;;;;;;6.70;5.32;;;15.00;99.90;;;;;;5035271;28;20176;-77
2023/07/30 02:09:04;;;;;;;10.40;5.25;;;15.00;99.90;;;;;;5033808;28;20258;-77
2023/07/30 02:11:30;;;;;;;9.05;4.88;;;15.00;99.90;;;;;;5016357;28;20183;-77
2023/07/30 02:13:56;;;;;;;12.23;5.35;;;14.90;99.90;;;;;;5033740;28;20218;-77
2023/07/30 02:16:22;;;;;;;7.75;5.43;;;14.90;99.90;;;;;;5015041;28;20179;-76
2023/07/30 02:18:47;;;;;;;7.65;4.20;;;14.90;99.90;;;;;;5017646;28;20183;-77
2023/07/30 02:21:13;;;;;;;8.55;4.93;;;14.80;99.90;;;;;;5033269;28;20203;-77
2023/07/30 02:23:39;;;;;;;6.88;4.90;;;14.80;99.90;;;;;;5016310;28;20210;-77
2023/07/30 02:26:04;;;;;;;7.88;5.10;;;14.70;99.90;;;;;;5035178;28;20182;-77
2023/07/30 02:28:30;;;;;;;9.00;4.95;;;14.70;99.90;;;;;;5017560;28;20179;-77
2023/07/30 02:30:56;;;;;;;15.00;5.25;;;14.70;99.90;;;;;;5033956;28;20643;-76
2023/07/30 02:33:22;;;;;;;9.88;5.05;;;14.60;99.90;;;;;;5035431;28;20325;-77
2023/07/30 02:35:47;;;;;;;8.80;4.47;;;14.60;99.90;;;;;;5017858;28;20175;-77
2023/07/30 02:38:13;;;;;;;8.13;4.70;;;14.50;99.90;;;;;;5035322;28;20179;-78
2023/07/30 02:40:39;;;;;;;11.00;5.47;;;14.50;99.90;;;;;;5035612;28;20603;-78
2023/07/30 02:43:04;;;;;;;11.55;4.85;;;14.60;99.90;;;;;;5017751;28;20238;-77
2023/07/30 02:45:30;;;;;;;5.90;4.50;;;14.50;99.90;;;;;;5032233;28;20214;-77
2023/07/30 02:47:56;;;;;;;8.50;4.60;;;14.40;99.90;;;;;;5016055;28;20198;-77
2023/07/30 02:50:22;;;;;;;8.15;4.50;;;14.30;99.90;;;;;;5017259;28;20237;-77
2023/07/30 02:52:47;;;;;;;5.63;4.47;;;14.30;99.90;;;;;;5034791;28;20203;-77
2023/07/30 02:55:13;;;;;;;9.43;5.13;;;14.40;99.90;;;;;;5017178;28;20277;-77
2023/07/30 02:57:39;;;;;;;6.78;4.75;;;14.40;99.90;;;;;;5035036;28;20198;-77
2023/07/30 03:00:05;;;;;;;9.13;5.20;;;14.30;99.90;;;;;;5014899;28;20203;-76
2023/07/30 03:02:31;;;;;;;8.30;5.00;;;14.40;99.90;;;;;;5016327;28;20187;-77
2023/07/30 03:04:57;;;;;;;9.65;5.03;;;14.30;99.90;;;;;;5016910;28;20171;-77
2023/07/30 03:07:23;;;;;;;9.05;5.15;;;14.30;99.90;;;;;;5034810;28;20582;-76
2023/07/30 03:09:48;;;;;;;7.70;5.53;;;14.30;99.90;;;;;;5016631;28;20688;-77
2023/07/30 03:12:14;;;;;;;12.38;5.45;;;14.30;99.90;;;;;;5014200;28;20563;-77
2023/07/30 03:14:40;;;;;;;8.88;5.10;;;14.30;99.90;;;;;;5013878;28;20248;-76
2023/07/30 03:17:06;;;;;;;7.28;5.00;;;14.30;99.90;;;;;;5015447;28;20248;-77
2023/07/30 03:19:32;;;;;;;7.85;4.75;;;14.20;99.90;;;;;;5016785;28;20211;-77
2023/07/30 03:21:57;;;;;;;7.43;4.70;;;14.20;99.90;;;;;;5016680;28;20245;-76
2023/07/30 03:24:23;;;;;;;7.05;5.10;;;14.20;99.90;;;;;;5016373;28;20194;-77
2023/07/30 03:26:49;;;;;;;6.53;4.65;;;14.20;99.90;;;;;;5034127;28;20171;-77
2023/07/30 03:29:15;;;;;;;8.50;4.68;;;14.10;99.90;;;;;;5015323;28;20183;-76
2023/07/30 03:31:41;;;;;;;9.27;5.40;;;14.00;99.90;;;;;;5009137;28;20548;-77
2023/07/30 03:34:07;;;;;;;6.38;4.80;;;14.00;99.90;;;;;;5014189;28;20200;-77
2023/07/30 03:36:33;;;;;;;8.40;5.15;;;13.90;99.90;;;;;;5014376;28;20175;-77
2023/07/30 03:38:59;;;;;;;10.38;5.43;;;13.90;99.90;;;;;;5014401;28;20172;-77
2023/07/30 03:41:25;;;;;;;8.63;5.25;;;13.80;99.90;;;;;;5014347;28;20202;-77
2023/07/30 03:43:51;;;;;;;5.95;4.63;;;13.80;99.90;;;;;;5014397;28;20216;-77
2023/07/30 03:46:16;;;;;;;7.32;4.82;;;13.80;99.90;;;;;;5026749;28;20261;-76
2023/07/30 03:48:42;;;;;;;7.22;5.25;;;13.80;99.90;;;;;;5016943;28;20198;-77
2023/07/30 03:51:08;;;;;;;7.78;4.80;;;13.80;99.90;;;;;;5018095;28;20256;-77
2023/07/30 03:53:34;;;;;;;6.03;4.63;;;13.70;99.90;;;;;;5035226;28;20194;-77
2023/07/30 03:56:00;;;;;;;6.15;4.47;;;13.80;99.90;;;;;;5017403;28;20559;-77
2023/07/30 03:58:26;;;;;;;5.63;4.28;;;13.80;99.90;;;;;;5016627;28;20644;-77
2023/07/30 04:00:52;;;;;;;5.43;4.80;;;13.80;99.90;;;;;;5014680;28;20217;-77
2023/07/30 04:03:18;;;;;;;9.63;4.47;;;13.70;99.90;;;;;;5015247;28;20211;-77
2023/07/30 04:05:43;;;;;;;8.98;4.45;;;13.80;99.90;;;;;;4996687;28;20179;-77
2023/07/30 04:08:09;;;;;;;5.55;4.40;;;13.70;99.90;;;;;;5014177;28;20637;-76
2023/07/30 04:10:35;;;;;;;7.45;5.25;;;13.70;99.90;;;;;;4996477;28;20211;-77
2023/07/30 04:13:01;;;;;;;11.10;5.10;;;13.70;99.90;;;;;;5030449;28;20280;-77
2023/07/30 04:15:26;;;;;;;6.93;4.90;;;13.70;99.90;;;;;;5013711;28;20179;-77
2023/07/30 04:17:52;;;;;;;7.65;5.10;;;13.70;99.90;;;;;;5034466;28;20186;-77
2023/07/30 04:20:19;;;;;;;8.00;5.03;;;13.70;99.90;;;;;;5015489;28;20233;-76
2023/07/30 04:22:45;;;;;;;7.55;5.15;;;13.80;99.90;;;;;;5016366;28;20261;-77
2023/07/30 04:25:11;;;;;;;6.85;4.78;;;13.80;99.90;;;;;;5033686;28;20202;-77
2023/07/30 04:27:37;;;;;;;10.52;5.63;;;13.80;99.90;;;;;;5016077;28;20175;-77
2023/07/30 04:30:05;;;;;;;16.73;5.95;;;13.90;99.90;;;;;;5031156;28;20258;-77
2023/07/30 04:32:30;;;;;;;8.23;5.10;;;13.80;99.90;;;;;;5033893;28;20171;-77
2023/07/30 04:34:56;;;;;;;9.13;5.20;;;13.80;99.90;;;;;;5016036;28;20197;-77
2023/07/30 04:37:22;;;;;;;7.70;5.57;;;13.80;99.90;;;;;;5033573;28;20598;-77
2023/07/30 04:39:48;;;;;;;9.85;5.07;;;13.90;99.90;;;;;;5033633;28;20234;-77
2023/07/30 04:42:15;;;;;;;8.05;4.85;;;13.90;99.90;;;;;;5034345;28;20167;-77
2023/07/30 04:44:41;;;;;;;15.63;5.22;;;13.90;99.90;;;;;;5014478;28;20207;-77
2023/07/30 04:47:07;;;;;;;8.20;5.10;;;14.00;99.90;;;;;;5017772;28;20183;-77
2023/07/30 04:49:33;;;;;;;7.05;5.22;;;14.00;99.90;;;;;;5031438;28;20653;-77
2023/07/30 04:51:58;;;;;;;11.73;5.60;;;14.10;99.90;;;;;;5017763;28;20183;-77
2023/07/30 04:54:24;;;;;;;12.77;5.50;;;14.00;99.90;;;;;;4999674;28;20227;-77
2023/07/30 04:56:50;;;;;;;14.35;5.22;;;14.10;99.90;;;;;;4999862;28;20628;-77
2023/07/30 04:59:16;;;;;;;15.15;5.72;;;14.10;99.90;;;;;;5017852;28;20183;-76
2023/07/30 05:01:41;;;;;;;14.35;6.28;;;14.20;99.90;;;;;;5036806;28;20179;-77
2023/07/30 05:04:07;;;;;;;13.43;6.43;;;14.30;99.90;;;;;;5019875;28;20191;-77
2023/07/30 05:06:33;;;;;;;8.57;5.82;;;14.40;99.90;;;;;;5033838;28;20662;-76
2023/07/30 05:08:59;;;;;;;13.02;6.15;;;14.40;99.90;;;;;;5037972;28;20183;-76
2023/07/30 05:11:24;;;;;;;19.30;8.35;;;14.60;99.90;;;;;;5020335;28;20179;-77
2023/07/30 05:13:50;;;;;;;16.30;6.03;;;14.60;99.90;;;;;;5020205;28;20214;-76
2023/07/30 05:16:16;;;;;;;11.20;6.20;;;14.60;99.90;;;;;;5018396;28;20209;-76
2023/07/30 05:18:41;;;;;;;13.25;6.00;;;14.70;99.90;;;;;;5018198;28;20647;-77
2023/07/30 05:21:07;;;;;;;16.27;6.75;;;14.70;99.90;;;;;;5018995;28;20234;-76
2023/07/30 05:23:33;;;;;;;14.15;6.28;;;14.80;99.90;;;;;;5018697;28;20269;-77
2023/07/30 05:25:59;;;;;;;11.52;6.72;;;14.80;99.90;;;;;;5036847;28;20179;-77
2023/07/30 05:28:24;;;;;;;13.35;6.18;;;14.90;99.90;;;;;;5018789;28;20175;-77
2023/07/30 05:30:50;;;;;;;10.65;6.65;;;15.00;99.90;;;;;;5030546;28;20190;-76
2023/07/30 05:33:16;;;;;;;13.32;6.85;;;15.10;99.90;;;;;;5035966;28;20199;-76
2023/07/30 05:35:42;;;;;;;12.15;5.32;;;15.20;99.90;;;;;;5035294;28;20274;-78
2023/07/30 05:38:07;;;;;;;12.13;5.70;;;15.30;99.90;;;;;;5035895;28;20191;-77
2023/07/30 05:40:35;;;;;;;10.93;6.03;;;15.30;99.90;;;;;;5015854;28;20217;-77
2023/07/30 05:43:01;;;;;;;13.13;6.30;;;15.30;99.90;;;;;;5018068;28;20217;-77
2023/07/30 05:45:27;;;;;;;11.98;5.13;;;15.30;99.90;;;;;;5030525;28;20183;-77
2023/07/30 05:47:53;;;;;;;19.00;6.80;;;15.40;99.90;;;;;;4998733;28;20172;-77
2023/07/30 05:50:18;;;;;;;16.90;6.00;;;15.40;99.90;;;;;;5016908;28;20285;-77
2023/07/30 05:52:44;;;;;;;14.07;5.85;;;15.40;99.90;;;;;;5017941;28;20191;-77
2023/07/30 05:55:10;;;;;;;11.70;5.32;;;15.40;99.90;;;;;;5017589;28;20178;-77
2023/07/30 05:57:36;;;;;;;12.80;4.90;;;15.40;99.90;;;;;;5014473;28;20663;-76
2023/07/30 06:00:02;;;;;;;14.77;5.90;;;15.50;99.90;;;;;;5035750;28;20671;-76
2023/07/30 06:02:28;;;;;;;11.95;5.68;;;15.40;99.90;;;;;;5032785;28;20183;-76
2023/07/30 06:04:54;;;;;;;17.35;6.20;;;15.40;99.90;;;;;;5035371;28;20167;-77
2023/07/30 06:07:19;;;;;;;10.10;5.10;;;15.40;99.90;;;;;;5017843;28;20175;-77
2023/07/30 06:09:45;;;;;;;14.65;6.18;;;15.40;99.90;;;;;;5034122;28;20206;-77
2023/07/30 06:12:11;;;;;;;14.77;5.90;;;15.50;99.90;;;;;;5016696;28;20249;-77
2023/07/30 06:14:37;;;;;;;11.45;5.22;;;15.50;99.90;;;;;;5035164;28;20203;-77
2023/07/30 06:17:03;;;;;;;14.13;5.32;;;15.50;99.90;;;;;;5033741;28;20187;-76
2023/07/30 06:19:28;;;;;;;17.45;6.22;;;15.50;99.90;;;;;;5033914;28;20186;-76
2023/07/30 06:21:54;;;;;;;11.75;4.57;;;15.40;99.90;;;;;;5033405;28;20184;-76
2023/07/30 06:24:20;;;;;;;16.35;5.15;;;15.40;99.90;;;;;;5035093;28;20187;-76
2023/07/30 06:26:45;;;;;;;13.73;5.32;;;15.40;99.90;;;;;;5034993;28;20171;-75
2023/07/30 06:29:11;;;;;;;11.95;5.25;;;15.40;99.90;;;;;;5034364;28;20230;-76
2023/07/30 06:31:37;;;;;;;15.20;5.25;;;15.30;99.90;;;;;;5034089;28;20578;-75
2023/07/30 06:34:03;;;;;;;12.02;5.43;;;15.30;99.90;;;;;;5035381;28;20663;-74
2023/07/30 06:36:28;;;;;;;13.40;4.68;;;15.30;99.90;;;;;;5017716;28;20205;-76
2023/07/30 06:38:54;;;;;;;24.27;6.50;;;15.20;99.90;;;;;;5017242;28;20183;-76
2023/07/30 06:41:21;;;;;;;13.68;5.07;;;15.20;99.90;;;;;;5035061;28;20203;-76
2023/07/30 06:43:47;;;;;;;11.15;5.35;;;15.20;99.90;;;;;;5036265;28;20199;-76
2023/07/30 06:46:12;;;;;;;17.42;5.07;;;15.20;99.90;;;;;;5034028;28;20186;-76
2023/07/30 06:48:38;;;;;;;12.38;4.88;;;15.20;99.90;;;;;;5016192;28;20249;-76
2023/07/30 06:51:08;;;;;;;6.82;4.18;;;15.20;99.90;;;;;;5034991;28;20230;-77
2023/07/30 06:53:34;;;;;;;9.50;4.88;;;15.20;99.90;;;;;;5017079;28;20199;-75
2023/07/30 06:56:00;;;;;;;11.15;4.28;;;15.20;99.90;;;;;;5034893;28;20175;-75
2023/07/30 06:58:26;;;;;;;10.90;4.68;;;15.20;99.90;;;;;;5033130;28;20194;-75
2023/07/30 07:00:51;;;;;;;10.75;4.55;;;15.20;99.90;;;;;;5029672;28;20289;-74
2023/07/30 07:03:18;;;;;;;11.07;4.63;;;15.30;99.90;;;;;;5032476;28;20325;-74
2023/07/30 07:05:43;;;;;;;11.93;5.03;;;15.20;99.90;;;;;;5017015;28;20642;-74
2023/07/30 07:08:09;;;;;;;16.17;4.80;;;15.20;99.90;;;;;;5016027;28;20183;-75
2023/07/30 07:10:35;;;;;;;16.83;5.28;;;15.20;99.90;;;;;;5016595;28;20198;-75
2023/07/30 07:13:00;;;;;;;12.30;4.80;;;15.20;99.90;;;;;;5030678;28;20229;-75
2023/07/30 07:15:26;;;;;;;14.13;5.03;;;15.10;99.90;;;;;;5015575;28;20194;-75
2023/07/30 07:17:52;;;;;;;9.75;4.68;;;15.20;99.90;;;;;;5034760;28;20183;-74
2023/07/30 07:20:18;;;;;;;13.13;4.90;;;15.20;99.90;;;;;;5034631;28;20202;-74
2023/07/30 07:22:44;;;;;;;14.68;5.63;;;15.20;99.90;;;;;;5033044;28;20185;-74
2023/07/30 07:25:10;;;;;;;13.98;4.88;;;15.20;99.90;;;;;;5034091;28;20540;-74
2023/07/30 07:27:35;;;;;;;11.23;5.15;;;15.20;99.90;;;;;;5016171;28;20647;-74
2023/07/30 07:30:01;;;;;;;11.13;4.88;;;15.20;99.90;;;;;;5034056;28;20258;-74
2023/07/30 07:32:27;;;;;;;18.48;5.82;;;15.20;99.90;;;;;;5034340;28;20254;-74
2023/07/30 07:34:53;;;;;;;14.20;5.30;;;15.20;99.90;;;;;;5033710;28;20191;-74
2023/07/30 07:37:19;;;;;;;14.75;5.60;;;15.20;99.90;;;;;;5034331;28;20171;-74
2023/07/30 07:39:46;;;;;;;13.10;5.43;;;15.20;99.90;;;;;;5032419;28;20217;-75
2023/07/30 07:42:12;;;;;;;20.65;6.07;;;15.30;99.90;;;;;;5000315;28;20701;-74
2023/07/30 07:44:38;;;;;;;14.52;5.65;;;15.30;99.90;;;;;;5016015;28;20195;-76
2023/07/30 07:47:04;;;;;;;14.00;5.40;;;15.40;99.90;;;;;;5033687;28;20202;-76
2023/07/30 07:49:30;;;;;;;12.38;5.43;;;15.40;99.90;;;;;;5016022;28;20191;-75
2023/07/30 07:51:55;;;;;;;12.77;5.97;;;15.40;99.90;;;;;;5015796;28;20182;-75
2023/07/30 07:54:21;;;;;;;16.38;6.00;;;15.40;99.90;;;;;;5016595;28;20206;-75
2023/07/30 07:56:47;;;;;;;23.58;6.75;;;15.30;99.90;;;;;;5032680;28;20182;-76
2023/07/30 07:59:13;;;;;;;14.60;5.80;;;15.40;99.90;;;;;;5033914;28;20175;-76
2023/07/30 08:01:38;;;;;;;13.23;5.90;;;15.40;99.90;;;;;;5033622;28;20187;-76
2023/07/30 08:04:04;;;;;;;14.82;5.78;;;15.40;99.90;;;;;;5015713;28;20191;-76
2023/07/30 08:06:32;;;;;;;19.08;6.68;;;15.40;99.90;;;;;;5033918;28;20155;-75
2023/07/30 08:08:58;;;;;;;13.73;5.50;;;15.30;99.90;;;;;;5033361;28;20167;-75
2023/07/30 08:11:23;;;;;;;11.82;6.20;;;15.30;99.90;;;;;;5016367;28;20179;-76
2023/07/30 08:13:49;;;;;;;16.13;7.57;;;15.40;99.90;;;;;;5014579;28;20707;-75
2023/07/30 08:16:15;;;;;;;21.92;7.63;;;15.50;99.90;;;;;;5015655;28;20219;-75
2023/07/30 08:18:41;;;;;;;13.10;6.05;;;15.50;99.90;;;;;;5015526;28;20539;-75
2023/07/30 08:21:07;;;;;;;14.75;6.22;;;15.50;99.90;;;;;;5036550;28;20198;-75
2023/07/30 08:23:32;;;;;;;15.60;6.30;;;15.60;99.90;;;;;;5018482;28;20195;-75
2023/07/30 08:25:58;;;;;;;14.85;6.72;;;15.60;99.90;;;;;;5019569;28;20206;-74
2023/07/30 08:28:24;;;;;;;11.73;5.95;;;15.60;99.90;;;;;;5019425;28;20175;-74
2023/07/30 08:30:49;;;;;;;14.43;6.32;;;15.60;99.90;;;;;;5037685;28;20537;-74
2023/07/30 08:33:15;;;;;;;13.40;6.47;;;15.50;99.90;;;;;;5037046;28;20738;-74
2023/07/30 08:35:41;;;;;;;12.93;5.95;;;15.50;99.90;;;;;;5037712;28;20181;-74
2023/07/30 08:38:06;;;;;;;17.48;7.13;;;15.60;99.90;;;;;;5017818;28;20218;-74
2023/07/30 08:40:32;;;;;;;15.00;6.00;;;15.60;99.90;;;;;;5036643;28;20191;-74
2023/07/30 08:42:59;;;;;;;15.50;6.05;;;15.60;99.90;;;;;;5019315;28;20656;-74
2023/07/30 08:45:25;;;;;;;12.35;6.20;;;15.60;99.90;;;;;;5018158;28;20183;-75
2023/07/30 08:47:52;;;;;;;14.15;6.20;;;15.60;99.90;;;;;;5046256;28;20171;-74
2023/07/30 08:50:18;;;;;;;13.68;5.90;;;15.70;99.90;;;;;;5036623;28;20183;-75
2023/07/30 08:52:44;;;;;;;13.18;6.28;;;15.70;99.90;;;;;;5031313;28;20182;-74
2023/07/30 08:55:11;;;;;;;13.57;5.97;;;15.70;99.90;;;;;;5040609;28;20278;-75
2023/07/30 08:57:39;;;;;;;17.45;5.95;;;15.70;99.90;;;;;;5019536;28;20187;-74
2023/07/30 09:00:09;;;;;;;12.00;5.68;;;15.70;99.90;;;;;;5037249;28;20224;-74
2023/07/30 09:02:53;;;;;;;10.43;5.60;;;15.70;99.90;;;;;;5038305;28;20169;-75
2023/07/30 09:05:20;;;;;;;13.32;5.35;;;15.70;99.90;;;;;;5050554;28;20167;-75
2023/07/30 09:07:46;;;;;;;15.73;5.63;;;15.80;99.90;;;;;;5022143;28;20194;-75
2023/07/30 09:10:13;;;;;;;17.13;5.43;;;15.80;99.90;;;;;;5034381;28;20171;-75
2023/07/30 09:12:39;;;;;;;10.75;5.22;;;15.90;99.90;;;;;;5043003;28;20198;-75
2023/07/30 09:15:06;;;;;;;10.68;5.80;;;16.00;99.90;;;;;;5052634;28;20244;-75
2023/07/30 09:17:34;;;;;;;10.43;5.18;;;16.10;99.90;;;;;;5024127;28;20535;-74
2023/07/30 09:20:00;;;;;;;12.68;5.38;;;16.10;99.90;;;;;;5039028;28;20682;-75
2023/07/30 09:22:27;;;;;;;13.93;5.25;;;16.30;99.90;;;;;;5050690;28;20186;-75
2023/07/30 09:24:55;;;;;;;15.55;5.65;;;16.60;99.90;;;;;;5021514;28;20194;-75
2023/07/30 09:27:23;;;;;;;13.68;4.65;;;16.70;99.90;;;;;;5035976;28;20202;-75
2023/07/30 09:29:59;;;;;;;12.25;4.68;;;16.90;99.90;;;;;;5027660;28;20211;-75
2023/07/30 09:32:29;;;;;;;10.88;5.05;;;17.10;99.90;;;;;;5035700;28;20640;-75
2023/07/30 09:34:55;;;;;;;16.80;5.63;;;17.20;99.90;;;;;;5017141;28;20587;-74
2023/07/30 09:37:21;;;;;;;7.38;4.55;;;17.30;99.90;;;;;;5018344;28;20179;-75
2023/07/30 09:39:50;;;;;;;9.57;4.57;;;17.20;99.90;;;;;;5034154;28;20210;-75
2023/07/30 09:42:16;;;;;;;11.68;4.10;;;17.20;99.90;;;;;;5035921;28;20187;-74
2023/07/30 09:44:42;;;;;;;8.75;4.82;;;17.30;99.90;;;;;;5017969;28;20219;-73
2023/07/30 09:47:11;;;;;;;12.52;4.85;;;17.60;99.90;;;;;;5035796;28;20251;-74
2023/07/30 09:49:39;;;;;;;12.25;4.57;;;17.80;99.90;;;;;;5035881;28;20221;-74
2023/07/30 09:52:05;;;;;;;9.38;4.13;;;18.10;99.90;;;;;;5036057;28;20600;-76
2023/07/30 09:54:32;;;;;;;8.02;3.95;;;18.40;99.90;;;;;;5041410;28;20568;-76
2023/07/30 09:56:58;;;;;;;14.95;4.55;;;18.50;99.90;;;;;;5030891;28;20175;-76
2023/07/30 09:59:24;;;;;;;11.40;4.57;;;18.40;99.90;;;;;;5037630;28;20580;-76
2023/07/30 10:01:55;;;;;;;13.13;4.45;;;18.40;99.90;;;;;;5018266;28;20214;-75
2023/07/30 10:04:22;;;;;;;13.05;4.57;;;18.60;99.90;;;;;;5022448;28;20312;-75
2023/07/30 10:07:03;;;;;;;8.95;3.78;;;18.80;99.90;;;;;;5037819;28;20183;-75
2023/07/30 10:09:33;;;;;;;11.88;4.18;;;19.10;99.90;;;;;;5037486;28;20228;-76
2023/07/30 10:12:00;;;;;;;11.93;3.80;;;19.00;99.90;;;;;;5042887;28;20183;-76
2023/07/30 10:14:26;;;;;;;9.27;3.75;;;18.90;99.90;;;;;;5034423;28;20229;-77
2023/07/30 10:16:54;;;;;;;6.95;3.53;;;18.60;99.90;;;;;;5018774;28;20552;-76
2023/07/30 10:19:27;;;;;;;10.52;3.85;;;18.60;99.90;;;;;;5025479;28;20278;-77
2023/07/30 10:22:11;;;;;;;7.20;3.33;;;18.80;99.90;;;;;;5005703;28;20218;-76
2023/07/30 10:24:38;;;;;;;9.73;3.75;;;19.20;99.90;;;;;;5035621;28;20281;-75
2023/07/30 10:27:09;;;;;;;13.70;3.70;;;19.40;99.90;;;;;;5036087;28;20643;-75
2023/07/30 10:29:38;;;;;;;12.10;3.95;;;19.70;99.90;;;;;;5038469;28;20159;-76
2023/07/30 10:32:04;;;;;;;8.57;3.00;;;19.70;99.90;;;;;;5018170;28;20717;-75
2023/07/30 10:34:45;;;;;;;12.90;4.07;;;19.90;99.90;;;;;;5018971;28;20199;-77
2023/07/30 10:37:17;;;;;;;10.85;3.33;;;20.00;90.00;;;;;;5017954;28;20577;-75
2023/07/30 10:39:42;;;;;;;6.30;3.10;;;19.90;40.70;;;;;;5020688;28;20206;-76
2023/07/30 10:42:08;;;;;;;9.02;3.17;;;19.80;59.50;;;;;;5028842;28;20167;-77
2023/07/30 10:44:35;;;;;;;9.32;3.20;;;19.80;99.10;;;;;;5036568;28;20202;-77
2023/07/30 10:47:02;;;;;;;9.07;3.08;;;20.00;99.90;;;;;;5049048;28;20170;-76
2023/07/30 10:49:28;;;;;;;8.15;3.10;;;20.20;99.90;;;;;;5026498;28;20183;-75
2023/07/30 10:51:57;;;;;;;9.35;3.08;;;20.50;25.40;;;;;;5035739;28;20170;-75
2023/07/30 10:54:23;;;;;;;8.48;3.33;;;20.70;3.70;;;;;;5030731;28;20226;-76
2023/07/30 10:56:49;;;;;;;7.55;2.58;;;20.40;1.00;;;;;;5035618;28;20163;-76
2023/07/30 10:59:15;;;;;;;10.73;3.20;;;20.40;1.00;;;;;;5035767;28;20536;-75
2023/07/30 11:01:43;;;;;;;9.25;2.80;;;20.40;1.00;;;;;;5034639;28;20194;-75
2023/07/30 11:04:11;;;;;;;12.70;2.90;;;20.40;1.00;;;;;;5017804;28;20239;-73
2023/07/30 11:06:38;;;;;;;7.00;2.47;;;20.20;1.00;;;;;;5015254;28;20163;-73
2023/07/30 11:09:04;;;;;;;10.07;3.10;;;20.30;1.00;;;;;;5016663;28;20189;-74
2023/07/30 11:11:31;;;;;;;6.75;2.70;;;20.60;1.00;;;;;;5033754;28;20179;-74
2023/07/30 11:13:58;;;;;;;10.27;2.60;;;20.60;1.00;;;;;;5016389;28;20250;-74
2023/07/30 11:16:24;;;;;;;7.65;2.90;;;20.40;1.00;;;;;;5016518;28;20692;-73
2023/07/30 11:18:50;;;;;;;7.75;2.60;;;20.50;1.00;;;;;;5034130;28;20274;-74
2023/07/30 11:21:18;;;;;;;7.78;3.05;;;20.40;1.00;;;;;;5016421;28;20205;-74
2023/07/30 11:23:45;;;;;;;7.07;2.80;;;20.20;1.00;;;;;;5034289;28;20533;-78
2023/07/30 11:26:19;;;;;;;8.13;2.95;;;20.20;1.00;;;;;;5016106;28;20612;-75
2023/07/30 11:28:45;;;;;;;3.78;2.25;;;20.00;1.00;;;;;;5016264;28;20697;-77
2023/07/30 11:31:19;;;;;;;17.05;3.20;;;20.10;1.00;;;;;;5016271;28;20293;-77
2023/07/30 11:33:47;;;;;;;11.30;2.65;;;20.20;1.00;;;;;;5016264;28;20683;-76
2023/07/30 11:36:21;;;;;;;7.43;2.58;;;20.30;1.00;;;;;;5016286;28;20715;-77
2023/07/30 11:38:48;;;;;;;9.10;2.85;;;20.40;1.00;;;;;;5016150;28;20573;-77
2023/07/30 11:41:14;;;;;;;6.80;2.40;;;20.60;1.00;;;;;;5033481;28;20202;-77
2023/07/30 11:43:42;;;;;;;7.57;2.72;;;20.70;1.00;;;;;;5016610;28;20203;-77
2023/07/30 11:46:13;;;;;;;7.55;2.50;;;20.80;1.00;;;;;;5033928;28;20235;-78
2023/07/30 11:48:41;;;;;;;6.57;2.80;;;20.80;1.00;;;;;;5015983;28;20274;-77
2023/07/30 11:51:18;;;;;;;9.32;2.60;;;21.00;1.00;;;;;;5016036;28;20186;-77
2023/07/30 11:53:49;;;;;;;10.35;2.83;;;20.80;1.00;;;;;;5033685;28;20600;-77
2023/07/30 11:56:28;;;;;;;6.13;2.30;;;21.10;1.00;;;;;;5033378;28;20187;-77
2023/07/30 11:59:02;;;;;;;6.70;2.47;;;21.20;99.90;;;;;;5033862;28;20200;-78
2023/07/30 12:01:36;;;;;;;9.52;2.63;;;21.20;99.90;;;;;;5016243;28;20198;-77
2023/07/30 12:04:03;;;;;;;11.38;2.83;;;20.60;1.00;;;;;;5015625;28;20281;-75
2023/07/30 12:06:42;;;;;;;6.18;2.80;;;20.30;1.00;;;;;;5015897;28;20202;-76
2023/07/30 12:09:22;;;;;;;6.55;2.30;;;20.30;1.00;;;;;;5015725;28;20179;-74
2023/07/30 12:11:58;;;;;;;6.38;2.60;;;20.10;1.00;;;;;;5015384;28;20673;-75
2023/07/30 12:14:30;;;;;;;10.38;2.50;;;20.10;1.00;;;;;;5034248;28;20202;-75
2023/07/30 12:17:00;;;;;;;7.97;3.13;;;20.50;1.00;;;;;;5015610;28;20179;-74
2023/07/30 12:19:26;;;;;;;8.75;2.72;;;21.20;1.00;;;;;;5015424;28;20199;-75
2023/07/30 12:21:52;;;;;;;7.57;2.40;;;21.60;99.90;;;;;;5033738;28;20171;-76
2023/07/30 12:24:17;;;;;;;6.13;2.80;;;21.70;90.90;;;;;;5033513;28;20230;-75
2023/07/30 12:26:43;;;;;;;8.65;2.70;;;21.60;1.00;;;;;;5015473;28;20565;-76
2023/07/30 12:29:09;;;;;;;7.03;2.90;;;21.40;1.00;;;;;;5033921;28;20185;-76
2023/07/30 12:31:34;;;;;;;6.97;3.08;;;21.00;99.90;;;;;;5015547;28;20270;-77
2023/07/30 12:34:00;;;;;;;5.68;2.40;;;20.80;1.00;;;;;;5015357;28;20214;-77
2023/07/30 12:36:26;;;;;;;7.68;2.75;;;21.10;1.00;;;;;;5015987;28;20277;-77
2023/07/30 12:38:53;;;;;;;12.48;2.90;;;20.90;1.00;;;;;;5016367;28;20201;-78
2023/07/30 12:41:25;;;;;;;5.68;2.53;;;20.90;1.00;;;;;;5033141;28;20203;-76